Time;durP1;ratioP1;P1;durP2;ratioP2;P2;SDS_P1;SDS_P2;PMS_P1;PMS_P2;Temp;Humidity;BMP_temperature;BMP_pressure;BME280_temperature;BME280_humidity;BME280_pressure;Samples;Min_cycle;Max_cycle;Signal;HPM_P1;HPM_P2
2022/12/25 00:01:30;;;;;;;18.73;6.73;;;11.50;99.90;;;;;;5015889;28;20535;-61
2022/12/25 00:03:58;;;;;;;18.00;6.87;;;11.50;99.90;;;;;;5014926;28;20489;-61
2022/12/25 00:06:25;;;;;;;17.73;6.30;;;11.70;99.90;;;;;;5005249;28;20923;-61
2022/12/25 00:08:52;;;;;;;27.10;10.13;;;11.80;99.90;;;;;;5019523;28;20476;-61
2022/12/25 00:11:20;;;;;;;28.03;9.77;;;11.90;99.90;;;;;;5044379;28;21177;-61
2022/12/25 00:13:47;;;;;;;30.17;10.20;;;11.90;99.90;;;;;;5022621;28;20481;-62
2022/12/25 00:16:16;;;;;;;17.03;5.63;;;12.00;99.90;;;;;;5018105;28;20983;-62
2022/12/25 00:18:43;;;;;;;36.23;11.73;;;12.10;99.90;;;;;;5016535;28;20487;-62
2022/12/25 00:21:11;;;;;;;14.70;6.23;;;12.10;99.90;;;;;;5014512;28;20953;-62
2022/12/25 00:23:38;;;;;;;22.60;8.37;;;12.20;99.90;;;;;;5037993;28;20479;-62
2022/12/25 00:26:05;;;;;;;18.70;7.30;;;12.10;99.90;;;;;;5016585;28;20473;-62
2022/12/25 00:28:32;;;;;;;21.40;7.33;;;12.10;99.90;;;;;;5013868;28;20871;-62
2022/12/25 00:30:59;;;;;;;24.77;8.20;;;12.10;99.90;;;;;;5011643;28;21004;-62
2022/12/25 00:33:26;;;;;;;18.53;7.20;;;12.10;99.90;;;;;;5022664;28;20553;-62
2022/12/25 00:36:00;;;;;;;23.43;8.63;;;12.00;99.90;;;;;;5013197;28;20481;-62
2022/12/25 00:38:29;;;;;;;20.67;6.83;;;12.10;99.90;;;;;;5032752;28;21668;-62
2022/12/25 00:40:56;;;;;;;22.70;6.30;;;12.10;99.90;;;;;;5033982;28;20535;-62
2022/12/25 00:43:23;;;;;;;22.20;8.17;;;12.20;99.90;;;;;;5018266;28;20897;-62
2022/12/25 00:45:57;;;;;;;31.97;11.93;;;12.20;99.90;;;;;;5018209;28;21067;-62
2022/12/25 00:48:26;;;;;;;17.10;7.30;;;12.10;99.90;;;;;;5021753;28;21326;-62
2022/12/25 00:50:56;;;;;;;24.87;9.97;;;12.10;99.90;;;;;;5009639;28;20762;-62
2022/12/25 00:53:23;;;;;;;17.67;7.37;;;11.90;99.90;;;;;;5013696;28;20474;-62
2022/12/25 00:55:56;;;;;;;28.90;10.97;;;11.90;99.90;;;;;;5013616;28;20496;-62
2022/12/25 00:58:24;;;;;;;13.40;6.60;;;11.90;99.90;;;;;;5017449;28;20478;-61
2022/12/25 01:00:51;;;;;;;35.60;11.70;;;12.00;99.90;;;;;;5013127;28;20846;-62
2022/12/25 01:03:18;;;;;;;15.50;7.33;;;12.00;99.90;;;;;;5022899;28;21091;-62
2022/12/25 01:05:55;;;;;;;24.67;9.80;;;12.00;99.90;;;;;;5011903;28;20485;-62
2022/12/25 01:08:22;;;;;;;19.83;7.70;;;12.00;99.90;;;;;;5005869;28;20801;-62
2022/12/25 01:10:54;;;;;;;23.90;9.90;;;12.10;99.90;;;;;;5023321;28;20477;-62
2022/12/25 01:13:21;;;;;;;17.50;6.13;;;12.10;99.90;;;;;;5012117;28;21005;-62
2022/12/25 01:15:48;;;;;;;34.33;12.67;;;12.10;99.90;;;;;;5016799;28;20551;-62
2022/12/25 01:18:14;;;;;;;15.37;7.77;;;12.10;99.90;;;;;;5014098;28;20473;-62
2022/12/25 01:20:41;;;;;;;37.50;13.57;;;12.10;99.90;;;;;;5012897;28;20476;-62
2022/12/25 01:23:08;;;;;;;11.13;6.20;;;12.00;99.90;;;;;;5023825;28;20854;-62
2022/12/25 01:25:34;;;;;;;20.13;7.70;;;11.90;99.90;;;;;;5022245;28;20512;-61
2022/12/25 01:28:02;;;;;;;26.90;8.00;;;12.00;99.90;;;;;;5015807;28;21495;-62
2022/12/25 01:30:30;;;;;;;16.37;6.10;;;12.00;99.90;;;;;;5004609;28;20855;-62
2022/12/25 01:32:57;;;;;;;16.67;7.60;;;12.10;99.90;;;;;;5014864;28;20718;-61
2022/12/25 01:35:23;;;;;;;18.47;7.03;;;11.90;99.90;;;;;;5004500;28;20487;-62
2022/12/25 01:37:50;;;;;;;33.50;12.43;;;11.90;99.90;;;;;;5013721;28;20485;-62
2022/12/25 01:40:17;;;;;;;18.93;8.00;;;11.90;99.90;;;;;;5017382;28;20945;-62
2022/12/25 01:42:44;;;;;;;32.90;11.83;;;11.80;99.90;;;;;;5016811;28;20484;-62
2022/12/25 01:45:34;;;;;;;21.47;7.30;;;11.70;99.90;;;;;;5012920;28;21157;-62
2022/12/25 01:48:05;;;;;;;29.73;6.93;;;11.80;99.90;;;;;;5021674;28;20837;-62
2022/12/25 01:50:34;;;;;;;34.37;8.53;;;11.80;99.90;;;;;;5020681;28;20843;-62
2022/12/25 01:53:00;;;;;;;18.63;7.53;;;11.80;99.90;;;;;;5013143;28;20473;-62
2022/12/25 01:55:27;;;;;;;51.27;18.43;;;11.90;99.90;;;;;;5013208;28;20481;-62
2022/12/25 01:57:54;;;;;;;28.63;10.93;;;11.80;99.90;;;;;;5012596;28;20504;-62
2022/12/25 02:00:21;;;;;;;20.93;9.30;;;11.80;99.90;;;;;;5036470;28;21620;-62
2022/12/25 02:02:49;;;;;;;24.83;9.60;;;11.80;99.90;;;;;;5012309;28;20992;-62
2022/12/25 02:05:21;;;;;;;26.13;9.60;;;11.80;99.90;;;;;;5012367;28;20555;-62
2022/12/25 02:07:49;;;;;;;37.00;13.37;;;11.80;99.90;;;;;;5013206;28;20896;-62
2022/12/25 02:10:16;;;;;;;32.00;10.63;;;11.90;99.90;;;;;;5015639;28;20587;-62
2022/12/25 02:12:44;;;;;;;35.50;13.33;;;12.00;99.90;;;;;;5012518;28;20575;-62
2022/12/25 02:15:13;;;;;;;19.30;8.83;;;;;;;;;;5010826;28;20611;-62
2022/12/25 02:17:44;;;;;;;26.70;10.90;;;12.00;99.90;;;;;;5012384;28;20489;-62
2022/12/25 02:20:46;;;;;;;26.20;11.17;;;11.90;99.90;;;;;;5012137;28;20469;-62
2022/12/25 02:23:41;;;;;;;18.03;7.60;;;11.90;99.90;;;;;;5015839;28;20542;-62
2022/12/25 02:26:33;;;;;;;21.13;9.03;;;11.90;99.90;;;;;;5010622;28;20510;-62
2022/12/25 02:29:06;;;;;;;19.17;8.43;;;11.90;99.90;;;;;;5025117;28;21181;-62
2022/12/25 02:31:39;;;;;;;27.03;8.47;;;11.90;99.90;;;;;;5028232;28;20699;-62
2022/12/25 02:34:11;;;;;;;22.20;8.37;;;11.90;99.90;;;;;;5011333;28;21059;-62
2022/12/25 02:36:42;;;;;;;26.53;10.60;;;12.00;99.90;;;;;;5011858;28;20489;-62
2022/12/25 02:42:03;;;;;;;14.17;7.00;;;12.10;99.90;;;;;;5019088;28;20882;-62
2022/12/25 03:07:01;;;;;;;33.40;12.60;;;11.80;99.90;;;;;;5015425;28;20492;-62
2022/12/25 03:12:24;;;;;;;15.30;7.97;;;11.80;99.90;;;;;;5029042;28;20906;-61
2022/12/25 03:17:37;;;;;;;15.23;7.17;;;11.90;99.90;;;;;;5007574;28;20562;-62
2022/12/25 03:28:19;;;;;;;25.03;8.67;;;11.80;99.90;;;;;;5026690;28;20487;-62
2022/12/25 03:31:12;;;;;;;36.67;13.70;;;11.80;99.90;;;;;;5037799;28;21134;-61
2022/12/25 04:38:30;;;;;;;20.70;9.27;;;11.80;99.90;;;;;;5026530;28;20482;-61
2022/12/25 04:40:58;;;;;;;28.17;10.33;;;11.70;99.90;;;;;;5015038;28;20846;-61
2022/12/25 04:43:25;;;;;;;35.00;8.33;;;11.70;99.90;;;;;;5023918;28;20514;-61
2022/12/25 04:45:53;;;;;;;25.67;10.27;;;11.80;99.90;;;;;;5033068;28;21396;-62
2022/12/25 04:48:19;;;;;;;18.60;8.10;;;11.80;99.90;;;;;;5037805;28;20484;-62
2022/12/25 04:50:46;;;;;;;36.97;10.13;;;11.80;99.90;;;;;;5036057;28;20727;-61
2022/12/25 04:53:13;;;;;;;19.60;8.50;;;11.80;99.90;;;;;;5035432;28;20499;-61
2022/12/25 04:55:40;;;;;;;11.27;6.50;;;;;;;;;;5037286;28;20488;-61
2022/12/25 04:58:08;;;;;;;31.40;8.33;;;11.70;99.90;;;;;;5037243;28;20607;-61
2022/12/25 05:00:35;;;;;;;12.57;6.83;;;11.60;99.90;;;;;;5012425;28;20511;-61
2022/12/25 05:03:02;;;;;;;15.17;7.40;;;11.70;99.90;;;;;;5037498;28;20484;-61
2022/12/25 05:05:28;;;;;;;20.50;7.70;;;11.70;99.90;;;;;;5037427;28;20542;-61
2022/12/25 05:07:56;;;;;;;17.53;6.80;;;11.70;99.90;;;;;;5036528;28;20535;-61
2022/12/25 05:10:23;;;;;;;19.93;9.27;;;11.70;99.90;;;;;;5035633;28;20499;-61
2022/12/25 05:12:50;;;;;;;41.70;11.50;;;11.70;99.90;;;;;;5037210;28;20492;-61
2022/12/25 05:15:18;;;;;;;17.80;8.47;;;11.70;99.90;;;;;;5036784;28;20966;-61
2022/12/25 05:17:44;;;;;;;42.53;14.03;;;11.70;99.90;;;;;;5036216;28;20566;-61
2022/12/25 05:20:11;;;;;;;22.50;8.53;;;11.60;99.90;;;;;;5035532;28;20488;-61
2022/12/25 05:22:38;;;;;;;25.80;8.93;;;11.50;99.90;;;;;;5035827;28;20542;-61
2022/12/25 05:25:05;;;;;;;15.57;7.03;;;11.50;99.90;;;;;;5035346;28;20484;-62
2022/12/25 05:27:32;;;;;;;22.37;7.60;;;11.40;99.90;;;;;;5017455;28;20490;-61
2022/12/25 05:29:58;;;;;;;25.23;9.07;;;11.40;99.90;;;;;;5025492;28;20674;-61
2022/12/25 05:32:26;;;;;;;26.63;8.50;;;11.40;99.90;;;;;;5016621;28;20493;-61
2022/12/25 05:34:53;;;;;;;34.87;9.03;;;11.50;99.90;;;;;;5016099;28;20477;-61
2022/12/25 05:37:20;;;;;;;23.30;7.87;;;11.60;99.90;;;;;;5016418;28;20481;-61
2022/12/25 05:39:46;;;;;;;38.77;11.80;;;11.70;99.90;;;;;;5016944;28;20489;-61
2022/12/25 05:42:13;;;;;;;32.83;7.00;;;11.70;99.90;;;;;;5013204;28;20501;-61
2022/12/25 05:44:40;;;;;;;33.07;11.13;;;11.80;99.90;;;;;;5015086;28;20489;-61
2022/12/25 05:47:06;;;;;;;14.63;6.83;;;11.70;99.90;;;;;;5015960;28;20465;-61
2022/12/25 05:49:34;;;;;;;15.50;6.10;;;11.60;99.90;;;;;;5006196;28;20474;-61
2022/12/25 05:52:01;;;;;;;16.47;6.93;;;11.60;99.90;;;;;;5013203;28;20500;-61
2022/12/25 05:54:28;;;;;;;18.80;6.47;;;11.50;99.90;;;;;;5016739;28;20496;-61
2022/12/25 05:56:54;;;;;;;42.20;9.40;;;11.60;99.90;;;;;;5015377;28;20485;-60
2022/12/25 05:59:21;;;;;;;19.80;7.10;;;11.70;99.90;;;;;;5016388;28;20973;-61
2022/12/25 06:01:48;;;;;;;41.23;11.53;;;11.80;99.90;;;;;;5015565;28;20834;-61
2022/12/25 06:04:14;;;;;;;18.43;7.83;;;11.70;99.90;;;;;;5015622;28;20794;-60
2022/12/25 06:06:42;;;;;;;29.37;8.77;;;15.50;99.90;;;;;;5016520;28;20488;-61
2022/12/25 06:09:12;;;;;;;26.77;7.60;;;11.70;99.90;;;;;;5020445;28;20466;-61
2022/12/25 06:11:38;;;;;;;23.10;7.83;;;11.70;99.90;;;;;;5014940;28;20492;-61
2022/12/25 06:14:05;;;;;;;23.07;8.20;;;11.70;99.90;;;;;;5016559;28;20481;-60
2022/12/25 06:16:32;;;;;;;27.83;6.90;;;11.80;99.90;;;;;;5015714;28;20765;-61
2022/12/25 06:18:59;;;;;;;34.03;9.33;;;11.70;99.90;;;;;;5016429;28;20481;-62
2022/12/25 06:21:25;;;;;;;21.53;8.30;;;11.70;99.90;;;;;;5014474;28;20481;-61
2022/12/25 06:23:53;;;;;;;50.30;12.83;;;11.70;99.90;;;;;;5016049;28;20488;-61
2022/12/25 06:26:20;;;;;;;31.03;8.80;;;11.70;99.90;;;;;;5022987;28;20485;-61
2022/12/25 06:28:47;;;;;;;26.67;10.13;;;11.80;99.90;;;;;;5028654;28;20508;-61
2022/12/25 06:31:16;;;;;;;19.23;9.03;;;11.80;99.90;;;;;;5027619;28;20533;-61
2022/12/25 06:33:43;;;;;;;36.83;12.07;;;11.80;99.90;;;;;;5035488;28;20472;-61
2022/12/25 06:36:12;;;;;;;18.33;8.33;;;11.80;99.90;;;;;;5015385;28;20481;-61
2022/12/25 06:38:38;;;;;;;22.37;8.77;;;13.90;99.90;;;;;;5027555;28;20489;-61
2022/12/25 06:41:09;;;;;;;21.33;6.80;;;11.50;99.90;;;;;;5034328;28;20480;-61
2022/12/25 06:43:36;;;;;;;22.80;9.00;;;11.50;99.90;;;;;;5035842;28;20468;-61
2022/12/25 06:46:03;;;;;;;19.80;8.40;;;11.60;99.90;;;;;;5033409;28;21017;-61
2022/12/25 06:48:31;;;;;;;28.97;11.20;;;11.60;99.90;;;;;;5030342;28;20839;-61
2022/12/25 06:50:58;;;;;;;24.60;9.40;;;11.60;99.90;;;;;;5023267;28;20839;-61
2022/12/25 06:53:25;;;;;;;23.40;9.80;;;11.60;99.90;;;;;;5015429;28;20484;-61
2022/12/25 06:55:51;;;;;;;30.60;10.87;;;11.60;99.90;;;;;;5015744;28;20554;-61
2022/12/25 06:58:20;;;;;;;19.13;7.33;;;11.70;99.90;;;;;;5013419;28;20488;-61
2022/12/25 07:00:46;;;;;;;41.13;12.70;;;11.70;99.90;;;;;;5016675;28;20491;-61
2022/12/25 07:03:19;;;;;;;14.07;5.87;;;11.60;99.90;;;;;;5023400;28;21170;-62
2022/12/25 07:05:46;;;;;;;36.37;13.00;;;11.60;99.90;;;;;;5004473;28;20484;-61
2022/12/25 07:08:13;;;;;;;18.70;6.97;;;11.60;99.90;;;;;;5027366;28;20976;-62
2022/12/25 07:10:40;;;;;;;19.70;10.90;;;11.60;99.90;;;;;;5037981;28;20479;-61
2022/12/25 07:13:07;;;;;;;18.53;9.73;;;11.50;99.90;;;;;;5038840;28;20478;-62
2022/12/25 07:15:35;;;;;;;19.20;8.97;;;11.50;99.90;;;;;;5038861;28;20480;-62
2022/12/25 07:18:02;;;;;;;12.33;7.53;;;11.40;99.90;;;;;;5039184;28;20554;-62
2022/12/25 07:20:29;;;;;;;25.23;10.87;;;11.40;99.90;;;;;;5035957;28;20491;-61
2022/12/25 07:22:56;;;;;;;28.50;12.90;;;11.40;99.90;;;;;;5036900;28;20925;-61
2022/12/25 07:25:23;;;;;;;25.43;8.80;;;11.40;99.90;;;;;;5039070;28;20503;-61
2022/12/25 07:27:49;;;;;;;34.87;12.30;;;11.50;99.90;;;;;;5039176;28;20487;-61
2022/12/25 07:30:16;;;;;;;27.33;9.70;;;11.60;99.90;;;;;;5029300;28;20944;-61
2022/12/25 07:32:44;;;;;;;27.63;10.13;;;11.70;99.90;;;;;;5051395;28;20906;-61
2022/12/25 07:35:11;;;;;;;17.47;7.43;;;11.70;99.90;;;;;;5027295;28;20507;-61
2022/12/25 07:37:37;;;;;;;22.07;9.17;;;11.70;99.90;;;;;;5023077;28;20504;-61
2022/12/25 07:40:05;;;;;;;33.10;13.90;;;11.80;99.90;;;;;;5016928;28;20481;-61
2022/12/25 07:42:32;;;;;;;23.70;9.87;;;11.80;99.90;;;;;;5019372;28;20484;-61
2022/12/25 07:44:59;;;;;;;18.53;7.50;;;11.80;99.90;;;;;;5018510;28;20565;-61
2022/12/25 07:47:25;;;;;;;16.87;6.60;;;11.70;99.90;;;;;;5019416;28;20477;-62
2022/12/25 07:49:53;;;;;;;37.50;13.57;;;11.70;99.90;;;;;;5018177;28;20476;-61
2022/12/25 07:52:20;;;;;;;23.27;9.17;;;11.70;99.90;;;;;;5018278;28;20823;-60
2022/12/25 07:54:47;;;;;;;43.80;13.20;;;13.70;99.90;;;;;;5019132;28;20489;-61
2022/12/25 07:57:13;;;;;;;17.33;7.87;;;11.80;99.90;;;;;;5018872;28;20481;-61
2022/12/25 07:59:40;;;;;;;43.73;12.03;;;11.70;99.90;;;;;;5014951;28;21011;-61
2022/12/25 08:02:07;;;;;;;14.80;7.50;;;11.70;99.90;;;;;;5021777;28;20531;-61
2022/12/25 08:04:33;;;;;;;18.77;8.30;;;11.70;99.90;;;;;;5025200;28;20469;-61
2022/12/25 08:07:02;;;;;;;18.23;8.30;;;11.70;99.90;;;;;;5027358;28;20484;-61
2022/12/25 08:09:28;;;;;;;21.60;10.90;;;11.70;99.90;;;;;;5037610;28;20901;-61
2022/12/25 08:11:55;;;;;;;28.13;14.43;;;11.80;99.90;;;;;;5036523;28;20897;-61
2022/12/25 08:14:22;;;;;;;29.00;13.63;;;11.90;99.90;;;;;;5035568;28;21134;-61
2022/12/25 08:16:48;;;;;;;32.50;17.20;;;11.90;99.90;;;;;;5038821;28;20847;-61
2022/12/25 08:19:15;;;;;;;22.63;12.03;;;11.90;99.90;;;;;;5036780;28;20542;-61
2022/12/25 08:21:42;;;;;;;31.63;17.23;;;12.00;99.90;;;;;;5034996;28;20472;-61
2022/12/25 08:24:10;;;;;;;21.57;13.47;;;11.90;99.90;;;;;;5038599;28;20809;-61
2022/12/25 08:26:37;;;;;;;17.50;11.00;;;11.90;99.90;;;;;;5037650;28;21143;-61
2022/12/25 08:29:03;;;;;;;17.67;10.80;;;11.70;99.90;;;;;;5037752;28;20497;-61
2022/12/25 08:31:32;;;;;;;25.00;14.47;;;11.60;99.90;;;;;;5035324;28;20996;-61
2022/12/25 08:33:59;;;;;;;14.30;9.00;;;11.60;99.90;;;;;;5035877;28;20484;-62
2022/12/25 08:36:26;;;;;;;20.90;10.80;;;11.70;99.90;;;;;;5035415;28;20484;-61
2022/12/25 08:38:53;;;;;;;23.00;13.23;;;11.80;99.90;;;;;;5037223;28;20491;-61
2022/12/25 08:41:21;;;;;;;23.47;11.93;;;11.70;99.90;;;;;;5036787;28;20480;-62
2022/12/25 08:43:48;;;;;;;22.60;11.60;;;11.60;99.90;;;;;;5026768;28;20980;-61
2022/12/25 08:46:15;;;;;;;14.50;8.23;;;11.60;99.90;;;;;;5038065;28;20641;-61
2022/12/25 08:48:42;;;;;;;24.90;11.17;;;11.60;99.90;;;;;;5037928;28;20472;-61
2022/12/25 08:51:13;;;;;;;12.43;7.77;;;11.60;99.90;;;;;;5035151;28;20484;-61
2022/12/25 08:53:40;;;;;;;20.17;10.43;;;11.70;99.90;;;;;;5036476;28;20562;-61
2022/12/25 08:56:07;;;;;;;17.63;7.77;;;11.80;99.90;;;;;;5036446;28;20496;-61
2022/12/25 08:58:35;;;;;;;29.77;8.47;;;11.90;99.90;;;;;;5033829;28;20492;-62
2022/12/25 09:01:02;;;;;;;18.40;9.43;;;12.00;99.90;;;;;;5026620;28;20512;-61
2022/12/25 09:03:30;;;;;;;15.90;9.07;;;12.10;99.90;;;;;;5028273;28;21143;-61
2022/12/25 09:06:02;;;;;;;18.37;9.17;;;12.10;99.90;;;;;;5034614;28;20491;-62
2022/12/25 09:08:29;;;;;;;15.30;8.80;;;12.00;99.90;;;;;;5023135;28;20834;-62
2022/12/25 09:10:56;;;;;;;18.13;10.03;;;12.00;99.90;;;;;;5031268;28;20488;-61
2022/12/25 09:13:23;;;;;;;22.73;10.33;;;12.10;99.90;;;;;;5030761;28;20488;-61
2022/12/25 09:15:51;;;;;;;25.83;13.03;;;12.20;99.90;;;;;;5033055;28;20503;-61
2022/12/25 09:18:17;;;;;;;15.93;9.30;;;12.20;99.90;;;;;;5036382;28;20492;-62
2022/12/25 09:20:44;;;;;;;18.53;10.00;;;;;;;;;;5022351;28;20485;-62
2022/12/25 09:23:11;;;;;;;19.33;10.50;;;12.40;99.90;;;;;;5031468;28;20886;-61
2022/12/25 09:25:38;;;;;;;22.87;12.17;;;12.50;99.90;;;;;;5032558;28;20472;-62
2022/12/25 09:28:05;;;;;;;24.97;10.40;;;12.50;99.90;;;;;;5019365;28;20485;-61
2022/12/25 09:30:31;;;;;;;20.07;10.73;;;12.40;99.90;;;;;;5015730;28;20500;-62
2022/12/25 09:32:59;;;;;;;33.93;14.60;;;12.50;99.90;;;;;;5013628;28;20489;-61
2022/12/25 09:35:26;;;;;;;26.13;12.63;;;12.70;99.90;;;;;;5013214;28;20481;-62
2022/12/25 09:37:53;;;;;;;25.87;14.20;;;12.70;99.90;;;;;;5036565;28;20484;-62
2022/12/25 09:40:29;;;;;;;19.03;11.70;;;12.80;99.90;;;;;;5030972;28;20496;-62
2022/12/25 09:42:56;;;;;;;24.00;13.90;;;12.80;99.90;;;;;;5024226;28;20880;-62
2022/12/25 09:45:27;;;;;;;20.50;11.10;;;12.90;99.90;;;;;;5025430;28;20767;-62
2022/12/25 09:47:56;;;;;;;24.63;12.70;;;;;;;;;;5028630;28;20469;-62
2022/12/25 09:50:33;;;;;;;17.10;11.10;;;13.10;99.90;;;;;;5027206;28;20480;-62
2022/12/25 09:53:05;;;;;;;12.27;8.87;;;13.10;99.90;;;;;;5023014;28;20479;-62
2022/12/25 09:55:38;;;;;;;20.10;10.60;;;13.10;99.90;;;;;;5036237;28;20945;-62
2022/12/25 09:58:11;;;;;;;16.90;9.47;;;13.20;99.90;;;;;;5036351;28;20484;-61
2022/12/25 10:00:41;;;;;;;19.33;9.57;;;13.20;99.90;;;;;;5035031;28;20549;-61
2022/12/25 10:03:28;;;;;;;14.77;10.17;;;13.20;99.90;;;;;;5032812;28;20483;-62
2022/12/25 10:06:08;;;;;;;20.93;12.37;;;13.10;99.90;;;;;;5033807;28;20625;-62
2022/12/25 10:08:46;;;;;;;17.10;9.90;;;;;;;;;;5034595;28;20480;-62
2022/12/25 10:11:25;;;;;;;15.97;8.97;;;13.10;99.90;;;;;;5034943;28;21065;-62
2022/12/25 10:14:02;;;;;;;32.37;14.63;;;13.20;99.90;;;;;;5034492;28;20546;-62
2022/12/25 10:16:34;;;;;;;14.00;9.83;;;13.40;99.90;;;;;;5031896;28;20467;-61
2022/12/25 10:19:18;;;;;;;18.87;10.80;;;13.50;99.90;;;;;;5017713;28;20502;-61
2022/12/25 10:21:47;;;;;;;24.03;14.00;;;13.70;99.90;;;;;;5031765;28;20935;-61
2022/12/25 10:24:23;;;;;;;16.57;11.50;;;13.80;99.90;;;;;;5035485;28;20542;-62
2022/12/25 10:26:51;;;;;;;22.77;11.47;;;14.00;99.90;;;;;;5034281;28;20474;-62
2022/12/25 10:29:19;;;;;;;17.30;10.30;;;14.10;99.90;;;;;;5014866;28;20574;-62
2022/12/25 10:31:48;;;;;;;23.03;14.43;;;14.10;99.90;;;;;;5022270;28;20491;-62
2022/12/25 10:34:16;;;;;;;30.47;12.80;;;14.10;99.90;;;;;;5020573;28;20889;-61
2022/12/25 10:36:44;;;;;;;26.10;14.30;;;14.10;99.90;;;;;;5032772;28;20485;-62
2022/12/25 10:39:16;;;;;;;16.70;11.60;;;14.10;99.90;;;;;;5026952;28;20488;-62
2022/12/25 10:41:59;;;;;;;21.43;13.07;;;14.20;99.90;;;;;;5015960;28;20547;-62
2022/12/25 10:44:26;;;;;;;19.77;11.83;;;14.30;99.90;;;;;;5027049;28;20473;-62
2022/12/25 10:46:56;;;;;;;30.03;15.87;;;14.40;99.90;;;;;;5035473;28;21018;-62
2022/12/25 10:49:25;;;;;;;22.90;13.30;;;14.50;99.90;;;;;;5041728;28;20521;-62
2022/12/25 10:51:51;;;;;;;25.27;14.00;;;14.60;99.90;;;;;;5034922;28;21716;-62
2022/12/25 10:54:23;;;;;;;18.13;12.17;;;14.70;99.90;;;;;;5035406;28;20488;-62
2022/12/25 10:56:54;;;;;;;30.97;15.60;;;14.90;99.90;;;;;;5036817;28;20479;-62
2022/12/25 10:59:21;;;;;;;29.93;13.30;;;15.00;99.90;;;;;;5041528;28;20488;-62
2022/12/25 11:01:47;;;;;;;38.30;16.80;;;15.10;99.90;;;;;;5040121;28;21101;-62
2022/12/25 11:04:19;;;;;;;24.87;12.00;;;15.30;99.90;;;;;;5041977;28;20499;-62
2022/12/25 11:06:57;;;;;;;28.73;14.57;;;15.50;99.90;;;;;;5039533;28;20494;-62
2022/12/25 11:09:25;;;;;;;23.20;13.13;;;15.60;99.90;;;;;;5041343;28;20484;-62
2022/12/25 11:11:53;;;;;;;43.33;13.30;;;15.70;99.90;;;;;;5030021;28;20496;-63
2022/12/25 11:14:21;;;;;;;21.50;10.30;;;15.80;99.90;;;;;;5031640;28;20484;-63
2022/12/25 11:16:48;;;;;;;26.70;13.77;;;15.90;99.90;;;;;;5031165;28;20920;-62
2022/12/25 11:19:23;;;;;;;16.73;9.43;;;;;;;;;;5020475;28;20485;-62
2022/12/25 11:21:52;;;;;;;25.63;13.00;;;15.50;99.90;;;;;;5029105;28;20488;-62
2022/12/25 11:24:21;;;;;;;18.70;9.93;;;15.30;99.90;;;;;;5033502;28;20849;-62
2022/12/25 11:26:51;;;;;;;29.30;14.20;;;15.20;99.90;;;;;;5031845;28;20814;-63
2022/12/25 11:29:35;;;;;;;21.17;11.00;;;15.10;99.90;;;;;;5022119;28;20540;-62
2022/12/25 11:32:04;;;;;;;19.90;9.43;;;15.10;99.90;;;;;;5021379;28;20976;-63
2022/12/25 11:34:33;;;;;;;20.53;9.80;;;15.40;99.90;;;;;;5030823;28;20486;-63
2022/12/25 11:37:02;;;;;;;21.73;9.80;;;15.60;99.90;;;;;;5015037;28;20476;-63
2022/12/25 11:39:31;;;;;;;16.30;9.50;;;15.60;99.90;;;;;;5040333;28;20487;-63
2022/12/25 11:42:02;;;;;;;15.03;8.33;;;15.70;99.90;;;;;;5039712;28;20455;-63
2022/12/25 11:44:46;;;;;;;19.13;8.90;;;15.90;99.90;;;;;;5041555;28;20484;-63
2022/12/25 11:47:18;;;;;;;10.60;7.30;;;16.00;99.90;;;;;;5040109;28;20871;-63
2022/12/25 11:49:50;;;;;;;20.10;10.20;;;16.10;99.90;;;;;;5042371;28;20482;-63
2022/12/25 11:52:18;;;;;;;17.50;9.40;;;16.20;99.90;;;;;;5029767;28;20488;-63
2022/12/25 11:54:48;;;;;;;32.00;13.73;;;;;;;;;;5024527;28;20481;-63
2022/12/25 11:57:17;;;;;;;14.70;9.03;;;16.50;99.90;;;;;;5024473;28;20484;-63
2022/12/25 11:59:51;;;;;;;22.23;12.67;;;16.70;99.90;;;;;;5038409;28;20487;-63
2022/12/25 12:02:25;;;;;;;13.93;9.40;;;16.70;99.90;;;;;;5035897;28;20466;-62
2022/12/25 12:05:03;;;;;;;19.40;10.83;;;16.60;99.90;;;;;;5038665;28;20937;-63
2022/12/25 12:07:34;;;;;;;10.27;7.23;;;17.50;99.90;;;;;;5037327;28;20491;-63
2022/12/25 12:10:10;;;;;;;13.13;9.00;;;16.50;99.90;;;;;;5033819;28;20572;-63
2022/12/25 12:12:43;;;;;;;15.37;8.40;;;16.40;99.90;;;;;;5017765;28;20476;-63
2022/12/25 12:15:19;;;;;;;12.00;7.60;;;16.30;99.90;;;;;;5038174;28;20472;-62
2022/12/25 12:17:46;;;;;;;20.47;10.40;;;16.40;99.90;;;;;;5036210;28;20996;-63
2022/12/25 12:20:26;;;;;;;19.43;7.80;;;16.10;99.90;;;;;;5035987;28;20571;-63
2022/12/25 12:22:53;;;;;;;15.13;9.20;;;16.00;99.90;;;;;;5036930;28;20484;-63
2022/12/25 12:25:21;;;;;;;15.03;7.70;;;16.00;99.90;;;;;;5036860;28;20484;-63
2022/12/25 12:27:55;;;;;;;23.50;12.43;;;16.00;99.90;;;;;;5029068;28;20821;-63
2022/12/25 12:30:25;;;;;;;18.20;9.93;;;16.00;99.90;;;;;;5016717;28;20496;-63
2022/12/25 12:32:54;;;;;;;18.90;9.17;;;16.20;99.90;;;;;;5016613;28;20540;-63
2022/12/25 12:35:25;;;;;;;15.83;7.77;;;16.40;99.90;;;;;;5017617;28;20473;-63
2022/12/25 12:37:55;;;;;;;23.57;12.43;;;16.30;99.90;;;;;;5016654;28;20573;-63
2022/12/25 12:40:31;;;;;;;14.07;9.00;;;16.20;99.90;;;;;;5016448;28;20500;-63
2022/12/25 12:43:00;;;;;;;10.60;7.43;;;16.00;99.90;;;;;;5017114;28;20562;-63
2022/12/25 12:45:30;;;;;;;15.33;6.80;;;15.90;99.90;;;;;;5016061;28;20481;-63
2022/12/25 12:47:57;;;;;;;18.10;9.67;;;15.70;99.90;;;;;;5013980;28;20516;-63
2022/12/25 12:50:34;;;;;;;16.77;8.13;;;15.60;99.90;;;;;;5012862;28;20489;-63
2022/12/25 12:53:17;;;;;;;13.27;6.93;;;15.60;99.90;;;;;;5018682;28;20495;-63
2022/12/25 12:55:44;;;;;;;22.33;11.30;;;15.50;99.90;;;;;;5016037;28;20549;-63
2022/12/25 12:58:26;;;;;;;13.30;6.70;;;15.50;99.90;;;;;;5023130;28;21036;-62
2022/12/25 13:00:58;;;;;;;16.27;8.80;;;;;;;;;;5025035;28;20516;-63
2022/12/25 13:03:38;;;;;;;16.00;9.20;;;15.20;99.90;;;;;;5016197;28;20477;-63
2022/12/25 13:06:13;;;;;;;11.20;7.53;;;15.40;99.90;;;;;;5017045;28;20481;-63
2022/12/25 13:08:52;;;;;;;15.17;8.67;;;15.40;99.90;;;;;;5002984;28;20801;-63
2022/12/25 13:11:22;;;;;;;14.27;8.70;;;15.40;99.90;;;;;;5018132;28;20491;-63
2022/12/25 13:13:52;;;;;;;24.23;11.03;;;15.40;99.90;;;;;;5013676;28;20962;-63
2022/12/25 13:16:24;;;;;;;13.70;7.60;;;15.40;99.90;;;;;;5032314;28;20849;-63
2022/12/25 13:18:53;;;;;;;19.53;10.20;;;15.40;99.90;;;;;;5035324;28;20488;-63
2022/12/25 13:21:23;;;;;;;10.93;5.70;;;15.50;99.90;;;;;;5029904;28;20636;-63
2022/12/25 13:23:56;;;;;;;18.40;10.33;;;15.60;99.90;;;;;;5036910;28;20550;-63
2022/12/25 13:26:23;;;;;;;13.77;5.07;;;15.60;99.90;;;;;;5028376;28;21004;-63
2022/12/25 13:28:51;;;;;;;20.10;8.90;;;15.50;99.90;;;;;;5022089;28;20483;-63
2022/12/25 13:31:20;;;;;;;20.83;10.60;;;15.50;99.90;;;;;;5028897;28;20484;-63
2022/12/25 13:33:51;;;;;;;25.37;9.03;;;15.60;99.90;;;;;;5024111;28;20587;-63
2022/12/25 13:36:18;;;;;;;12.43;6.67;;;15.50;99.90;;;;;;5026988;28;20712;-63
2022/12/25 13:38:45;;;;;;;23.23;10.73;;;;;;;;;;5028140;28;20476;-63
2022/12/25 13:44:06;;;;;;;11.13;5.90;;;15.90;99.90;;;;;;5032315;28;20573;-63
2022/12/25 13:46:33;;;;;;;14.83;6.80;;;16.00;99.90;;;;;;5034651;28;20832;-63
2022/12/25 13:49:01;;;;;;;13.33;7.57;;;16.00;99.90;;;;;;5024904;28;20484;-63
2022/12/25 13:51:28;;;;;;;30.00;7.33;;;16.10;99.90;;;;;;5024120;28;20495;-63
2022/12/25 13:54:05;;;;;;;15.90;8.13;;;16.10;99.90;;;;;;5031872;28;20480;-63
2022/12/25 13:56:34;;;;;;;13.73;7.80;;;16.10;99.90;;;;;;5034301;28;20888;-63
2022/12/25 13:59:00;;;;;;;15.00;5.07;;;16.10;99.90;;;;;;5035329;28;20488;-63
2022/12/25 14:01:28;;;;;;;12.23;6.20;;;16.20;99.90;;;;;;5032186;28;20480;-63
2022/12/25 14:03:55;;;;;;;14.53;8.13;;;16.40;99.90;;;;;;5033297;28;20992;-63
2022/12/25 14:06:26;;;;;;;17.20;7.47;;;16.20;99.90;;;;;;5034625;28;20480;-63
2022/12/25 14:08:55;;;;;;;15.83;7.20;;;16.40;99.90;;;;;;5034097;28;20487;-63
2022/12/25 14:11:24;;;;;;;13.67;5.63;;;16.60;99.90;;;;;;5033683;28;20918;-63
2022/12/25 14:13:56;;;;;;;15.73;8.70;;;16.70;99.90;;;;;;5033564;28;20476;-63
2022/12/25 14:16:23;;;;;;;11.40;6.50;;;16.80;99.90;;;;;;5032502;28;20484;-63
2022/12/25 14:18:54;;;;;;;25.53;8.30;;;16.70;99.90;;;;;;5032976;28;20476;-62
2022/12/25 14:21:28;;;;;;;20.43;8.63;;;16.70;99.90;;;;;;5033430;28;21068;-63
2022/12/25 14:23:55;;;;;;;17.70;8.40;;;;;;;;;;5032617;28;21013;-63
2022/12/25 14:26:23;;;;;;;13.20;7.57;;;16.20;99.90;;;;;;5023784;28;20584;-63
2022/12/25 14:28:53;;;;;;;29.00;14.23;;;16.10;99.90;;;;;;5019198;28;20487;-63
2022/12/25 14:31:20;;;;;;;16.20;7.80;;;16.00;99.90;;;;;;5033968;28;20736;-63
2022/12/25 14:33:48;;;;;;;16.93;8.40;;;15.90;99.90;;;;;;5029080;28;20866;-62